Погода Хартумна неделю

Хартум, Судан

18 - 24 июля
  • 18июля
    Сегодня
    +29°
    +42°
    Ясно и безоблачно
    ВремяПогодаТемператураВлажностьДавлениеВетер, м/сВероятность осадков
    02:00Ясно и безоблачно+34°C39 %725 мм6.8 м/с2 %
    05:00Ясно и безоблачно+31°C48 %725 мм7.2 м/с2 %
    08:00Ясно и безоблачно+32°C47 %727 мм8.0 м/с2 %
    11:00Практически безоблачно+38°C33 %726 мм9.1 м/с2 %
    14:00Ясно и безоблачно+41°C25 %724 мм5.7 м/с2 %
    17:00Ясно и безоблачно+41°C22 %723 мм3.6 м/с2 %
    20:00Практически безоблачно+36°C33 %724 мм6.1 м/с2 %
    23:00Практически безоблачно+35°C37 %725 мм5.7 м/с2 %
  • 19июля
    Пятница
    +29°
    +42°
    Практически безоблачно
    ВремяПогодаТемператураВлажностьДавлениеВетер, м/сВероятность осадков
    02:00Ясно и безоблачно+33°C45 %724 мм6.7 м/с2 %
    05:00Ясно и безоблачно+31°C53 %724 мм5.1 м/с2 %
    08:00Ясно и безоблачно+33°C48 %725 мм7.0 м/с2 %
    11:00Ясно и безоблачно+38°C32 %725 мм7.3 м/с2 %
    14:00Практически безоблачно+42°C25 %723 мм5.1 м/с2 %
    17:00Практически безоблачно+42°C23 %721 мм2.0 м/с3 %
    20:00Небольшая облачность+38°C27 %723 мм4.1 м/с2 %
    23:00Практически безоблачно+35°C38 %723 мм5.8 м/с2 %
  • 20июля
    Суббота
    +29°
    +42°
    Ясно и безоблачно
    ВремяПогодаТемператураВлажностьДавлениеВетер, м/сВероятность осадков
    02:00Ясно и безоблачно+30°C56 %723 мм8.0 м/с5 %
    05:00Ясно и безоблачно+29°C67 %723 мм5.6 м/с3 %
    08:00Облачно с прояснениями+31°C56 %725 мм6.6 м/с2 %
    11:00Облачно с прояснениями+37°C38 %725 мм6.2 м/с2 %
    14:00Ясно и безоблачно+41°C28 %723 мм5.2 м/с9 %
    17:00Небольшая облачность+39°C32 %722 мм6.3 м/с10 %
    20:00Небольшая облачность+35°C41 %724 мм6.9 м/с12 %
    23:00Облачно с прояснениями+33°C51 %725 мм6.6 м/с15 %
  • 21июля
    Воскресенье
    +29°
    +39°
    Облачно с прояснениями
    ВремяПогодаТемператураВлажностьДавлениеВетер, м/сВероятность осадков
    02:00Практически безоблачно+32°C56 %724 мм6.4 м/с16 %
    05:00Ясно и безоблачно+30°C63 %724 мм6.2 м/с6 %
    08:00Небольшая облачность+31°C60 %726 мм8.2 м/с3 %
    11:00Небольшая облачность+34°C46 %726 мм8.0 м/с2 %
    14:00Облачно с прояснениями+38°C37 %725 мм6.7 м/с4 %
    17:00Облачно с прояснениями+39°C34 %724 мм4.2 м/с18 %
    20:00Облачно с прояснениями+35°C36 %726 мм3.9 м/с13 %
    23:00Облачно с прояснениями+34°C45 %726 мм4.4 м/с17 %
Мы используем cookies
Соглашаюсь